sensor_id;sensor_type;location;lat;lon;timestamp;pressure;altitude;pressure_sealevel;temperature;humidity
23589;BME280;11972;48.078;11.876;2022-12-11T00:02:40;94498.63;;;-0.93;100.00
23589;BME280;11972;48.078;11.876;2022-12-11T00:06:40;94504.22;;;-1.08;100.00
23589;BME280;11972;48.078;11.876;2022-12-11T00:10:48;94499.03;;;-1.17;100.00
23589;BME280;11972;48.078;11.876;2022-12-11T00:14:49;94509.09;;;-1.24;100.00
23589;BME280;11972;48.078;11.876;2022-12-11T00:18:49;94509.09;;;-1.24;100.00
23589;BME280;11972;48.078;11.876;2022-12-11T00:22:49;94514.28;;;-1.24;100.00
23589;BME280;11972;48.078;11.876;2022-12-11T00:26:50;94510.88;;;-1.25;100.00
23589;BME280;11972;48.078;11.876;2022-12-11T00:30:50;94508.03;;;-1.21;100.00
23589;BME280;11972;48.078;11.876;2022-12-11T00:34:51;94503.94;;;-1.24;100.00
23589;BME280;11972;48.078;11.876;2022-12-11T00:38:51;94508.03;;;-1.31;100.00
23589;BME280;11972;48.078;11.876;2022-12-11T00:42:52;94507.22;;;-1.32;100.00
23589;BME280;11972;48.078;11.876;2022-12-11T00:46:53;94500.38;;;-1.33;100.00
23589;BME280;11972;48.078;11.876;2022-12-11T00:50:53;94507.06;;;-1.30;100.00
23589;BME280;11972;48.078;11.876;2022-12-11T00:54:53;94512.00;;;-1.27;100.00
23589;BME280;11972;48.078;11.876;2022-12-11T00:58:54;94513.47;;;-1.34;100.00
23589;BME280;11972;48.078;11.876;2022-12-11T01:02:54;94509.91;;;-1.43;100.00
23589;BME280;11972;48.078;11.876;2022-12-11T01:06:54;94520.25;;;-1.53;100.00
23589;BME280;11972;48.078;11.876;2022-12-11T01:11:07;94521.91;;;-1.52;100.00
23589;BME280;11972;48.078;11.876;2022-12-11T01:15:08;94528.41;;;-1.57;100.00
23589;BME280;11972;48.078;11.876;2022-12-11T01:19:10;94531.16;;;-1.59;100.00
23589;BME280;11972;48.078;11.876;2022-12-11T01:23:11;94521.75;;;-1.60;100.00
23589;BME280;11972;48.078;11.876;2022-12-11T01:27:12;94525.97;;;-1.59;100.00
23589;BME280;11972;48.078;11.876;2022-12-11T01:31:14;94527.59;;;-1.58;100.00
23589;BME280;11972;48.078;11.876;2022-12-11T01:35:16;94526.94;;;-1.60;100.00
23589;BME280;11972;48.078;11.876;2022-12-11T01:39:17;94534.41;;;-1.57;100.00
23589;BME280;11972;48.078;11.876;2022-12-11T01:43:18;94547.50;;;-1.48;100.00
23589;BME280;11972;48.078;11.876;2022-12-11T01:47:18;94541.81;;;-1.42;100.00
23589;BME280;11972;48.078;11.876;2022-12-11T01:51:19;94539.63;;;-1.37;100.00
23589;BME280;11972;48.078;11.876;2022-12-11T01:55:20;94537.75;;;-1.35;100.00
23589;BME280;11972;48.078;11.876;2022-12-11T01:59:23;94543.59;;;-1.33;100.00
23589;BME280;11972;48.078;11.876;2022-12-11T02:03:26;94547.31;;;-1.26;100.00
23589;BME280;11972;48.078;11.876;2022-12-11T02:07:28;94550.84;;;-1.27;100.00
23589;BME280;11972;48.078;11.876;2022-12-11T02:16:28;94556.41;;;-1.41;100.00
23589;BME280;11972;48.078;11.876;2022-12-11T02:20:57;94551.88;;;-1.49;100.00
23589;BME280;11972;48.078;11.876;2022-12-11T02:29:48;94534.81;;;-1.61;100.00
23589;BME280;11972;48.078;11.876;2022-12-11T02:33:55;94520.22;;;-1.62;100.00
23589;BME280;11972;48.078;11.876;2022-12-11T02:38:01;94523.22;;;-1.67;100.00
23589;BME280;11972;48.078;11.876;2022-12-11T02:42:03;94517.47;;;-1.70;100.00
23589;BME280;11972;48.078;11.876;2022-12-11T02:46:06;94522.69;;;-1.61;100.00
23589;BME280;11972;48.078;11.876;2022-12-11T02:50:10;94524.06;;;-1.57;100.00
23589;BME280;11972;48.078;11.876;2022-12-11T02:54:16;94522.16;;;-1.45;100.00
23589;BME280;11972;48.078;11.876;2022-12-11T02:58:22;94528.59;;;-1.39;100.00
23589;BME280;11972;48.078;11.876;2022-12-11T03:02:25;94532.56;;;-1.35;100.00
23589;BME280;11972;48.078;11.876;2022-12-11T03:06:31;94535.69;;;-1.41;100.00
23589;BME280;11972;48.078;11.876;2022-12-11T03:10:35;94537.72;;;-1.45;100.00
23589;BME280;11972;48.078;11.876;2022-12-11T03:14:36;94533.91;;;-1.41;100.00
23589;BME280;11972;48.078;11.876;2022-12-11T03:23:53;94543.28;;;-1.50;100.00
23589;BME280;11972;48.078;11.876;2022-12-11T03:28:02;94551.31;;;-1.53;100.00
23589;BME280;11972;48.078;11.876;2022-12-11T03:32:06;94552.03;;;-1.51;100.00
23589;BME280;11972;48.078;11.876;2022-12-11T03:36:19;94537.69;;;-1.55;100.00
23589;BME280;11972;48.078;11.876;2022-12-11T03:40:24;94542.88;;;-1.55;100.00
23589;BME280;11972;48.078;11.876;2022-12-11T03:44:27;94555.56;;;-1.52;100.00
23589;BME280;11972;48.078;11.876;2022-12-11T03:48:32;94549.19;;;-1.47;100.00
23589;BME280;11972;48.078;11.876;2022-12-11T03:52:34;94547.41;;;-1.47;100.00
23589;BME280;11972;48.078;11.876;2022-12-11T03:56:35;94545.78;;;-1.48;100.00
23589;BME280;11972;48.078;11.876;2022-12-11T04:00:38;94554.88;;;-1.54;100.00
23589;BME280;11972;48.078;11.876;2022-12-11T04:04:40;94548.97;;;-1.65;100.00
23589;BME280;11972;48.078;11.876;2022-12-11T04:08:41;94552.09;;;-1.71;100.00
23589;BME280;11972;48.078;11.876;2022-12-11T04:12:41;94541.44;;;-1.78;100.00
23589;BME280;11972;48.078;11.876;2022-12-11T04:16:41;94547.19;;;-1.75;100.00
23589;BME280;11972;48.078;11.876;2022-12-11T04:20:42;94539.56;;;-1.76;100.00
23589;BME280;11972;48.078;11.876;2022-12-11T04:25:03;94546.38;;;-1.75;100.00
23589;BME280;11972;48.078;11.876;2022-12-11T04:29:03;94550.72;;;-1.76;100.00
23589;BME280;11972;48.078;11.876;2022-12-11T04:33:04;94541.44;;;-1.78;100.00
23589;BME280;11972;48.078;11.876;2022-12-11T04:37:04;94542.81;;;-1.74;100.00
23589;BME280;11972;48.078;11.876;2022-12-11T04:41:08;94558.09;;;-1.71;100.00
23589;BME280;11972;48.078;11.876;2022-12-11T04:45:10;94552.38;;;-1.65;100.00
23589;BME280;11972;48.078;11.876;2022-12-11T04:49:10;94545.31;;;-1.63;100.00
23589;BME280;11972;48.078;11.876;2022-12-11T04:53:11;94543.69;;;-1.64;100.00
23589;BME280;11972;48.078;11.876;2022-12-11T04:57:12;94546.66;;;-1.68;100.00
23589;BME280;11972;48.078;11.876;2022-12-11T05:01:15;94547.56;;;-1.79;100.00
23589;BME280;11972;48.078;11.876;2022-12-11T05:05:15;94551.50;;;-1.85;100.00
23589;BME280;11972;48.078;11.876;2022-12-11T05:09:16;94546.44;;;-1.86;100.00
23589;BME280;11972;48.078;11.876;2022-12-11T05:13:16;94546.19;;;-1.83;100.00
23589;BME280;11972;48.078;11.876;2022-12-11T05:17:17;94543.75;;;-1.85;100.00
23589;BME280;11972;48.078;11.876;2022-12-11T05:21:17;94532.94;;;-1.90;100.00
23589;BME280;11972;48.078;11.876;2022-12-11T05:25:18;94541.09;;;-1.94;100.00
23589;BME280;11972;48.078;11.876;2022-12-11T05:29:18;94540.69;;;-2.00;100.00
23589;BME280;11972;48.078;11.876;2022-12-11T05:33:19;94541.63;;;-2.01;100.00
23589;BME280;11972;48.078;11.876;2022-12-11T05:37:19;94534.13;;;-2.04;100.00
23589;BME280;11972;48.078;11.876;2022-12-11T05:41:21;94529.91;;;-2.05;100.00
23589;BME280;11972;48.078;11.876;2022-12-11T05:45:22;94534.38;;;-2.07;100.00
23589;BME280;11972;48.078;11.876;2022-12-11T05:49:22;94526.38;;;-2.04;100.00
23589;BME280;11972;48.078;11.876;2022-12-11T05:53:22;94537.53;;;-2.03;100.00
23589;BME280;11972;48.078;11.876;2022-12-11T05:57:23;94531.53;;;-2.04;100.00
23589;BME280;11972;48.078;11.876;2022-12-11T06:01:27;94533.16;;;-2.03;100.00
23589;BME280;11972;48.078;11.876;2022-12-11T06:05:27;94529.66;;;-2.02;100.00
23589;BME280;11972;48.078;11.876;2022-12-11T06:09:28;94525.84;;;-1.97;100.00
23589;BME280;11972;48.078;11.876;2022-12-11T06:13:28;94530.19;;;-1.98;100.00
23589;BME280;11972;48.078;11.876;2022-12-11T06:17:29;94524.59;;;-2.03;100.00
23589;BME280;11972;48.078;11.876;2022-12-11T06:21:30;94514.63;;;-2.08;100.00
23589;BME280;11972;48.078;11.876;2022-12-11T06:25:32;94514.31;;;-2.14;100.00
23589;BME280;11972;48.078;11.876;2022-12-11T06:29:32;94518.25;;;-2.20;100.00
23589;BME280;11972;48.078;11.876;2022-12-11T06:33:33;94523.25;;;-2.28;100.00
23589;BME280;11972;48.078;11.876;2022-12-11T06:37:35;94537.41;;;-2.32;100.00
23589;BME280;11972;48.078;11.876;2022-12-11T06:41:36;94523.78;;;-2.34;100.00
23589;BME280;11972;48.078;11.876;2022-12-11T06:45:36;94520.25;;;-2.33;100.00
23589;BME280;11972;48.078;11.876;2022-12-11T06:49:37;94524.28;;;-2.40;100.00
23589;BME280;11972;48.078;11.876;2022-12-11T06:53:38;94519.63;;;-2.46;100.00
23589;BME280;11972;48.078;11.876;2022-12-11T06:57:38;94523.84;;;-2.45;100.00
23589;BME280;11972;48.078;11.876;2022-12-11T07:01:39;94525.88;;;-2.49;100.00
23589;BME280;11972;48.078;11.876;2022-12-11T07:05:40;94524.63;;;-2.55;100.00
23589;BME280;11972;48.078;11.876;2022-12-11T07:09:40;94517.94;;;-2.57;100.00
23589;BME280;11972;48.078;11.876;2022-12-11T07:13:40;94528.66;;;-2.62;100.00
23589;BME280;11972;48.078;11.876;2022-12-11T07:17:41;94537.47;;;-2.64;100.00
23589;BME280;11972;48.078;11.876;2022-12-11T07:21:41;94542.06;;;-2.68;100.00
23589;BME280;11972;48.078;11.876;2022-12-11T07:25:42;94541.19;;;-2.78;100.00
23589;BME280;11972;48.078;11.876;2022-12-11T07:29:42;94547.41;;;-2.81;100.00
23589;BME280;11972;48.078;11.876;2022-12-11T07:33:44;94552.03;;;-2.84;100.00
23589;BME280;11972;48.078;11.876;2022-12-11T07:37:44;94554.72;;;-2.86;100.00
23589;BME280;11972;48.078;11.876;2022-12-11T07:41:45;94556.38;;;-2.85;100.00
23589;BME280;11972;48.078;11.876;2022-12-11T07:45:46;94560.72;;;-2.85;100.00
23589;BME280;11972;48.078;11.876;2022-12-11T07:49:46;94556.56;;;-2.77;100.00
23589;BME280;11972;48.078;11.876;2022-12-11T07:53:48;94552.16;;;-2.65;100.00
23589;BME280;11972;48.078;11.876;2022-12-11T07:57:49;94562.31;;;-2.52;100.00
23589;BME280;11972;48.078;11.876;2022-12-11T08:01:49;94556.94;;;-2.39;100.00
23589;BME280;11972;48.078;11.876;2022-12-11T08:05:50;94568.75;;;-2.26;100.00
23589;BME280;11972;48.078;11.876;2022-12-11T08:09:51;94561.19;;;-2.17;100.00
23589;BME280;11972;48.078;11.876;2022-12-11T08:13:51;94566.38;;;-2.08;100.00
23589;BME280;11972;48.078;11.876;2022-12-11T08:17:52;94561.38;;;-2.00;100.00
23589;BME280;11972;48.078;11.876;2022-12-11T08:21:52;94562.22;;;-1.89;100.00
23589;BME280;11972;48.078;11.876;2022-12-11T08:25:52;94562.03;;;-1.77;100.00
23589;BME280;11972;48.078;11.876;2022-12-11T08:29:53;94565.16;;;-1.73;100.00
23589;BME280;11972;48.078;11.876;2022-12-11T08:33:54;94563.28;;;-1.71;100.00
23589;BME280;11972;48.078;11.876;2022-12-11T08:37:54;94559.97;;;-1.73;100.00
23589;BME280;11972;48.078;11.876;2022-12-11T08:41:55;94569.41;;;-1.72;100.00
23589;BME280;11972;48.078;11.876;2022-12-11T08:45:56;94568.44;;;-1.71;100.00
23589;BME280;11972;48.078;11.876;2022-12-11T08:49:56;94572.28;;;-1.65;100.00
23589;BME280;11972;48.078;11.876;2022-12-11T08:53:58;94567.41;;;-1.59;100.00
23589;BME280;11972;48.078;11.876;2022-12-11T08:57:59;94565.53;;;-1.47;100.00
23589;BME280;11972;48.078;11.876;2022-12-11T09:01:59;94568.03;;;-1.36;100.00
23589;BME280;11972;48.078;11.876;2022-12-11T09:06:03;94574.31;;;-1.19;100.00
23589;BME280;11972;48.078;11.876;2022-12-11T09:10:06;94563.97;;;-1.09;100.00
23589;BME280;11972;48.078;11.876;2022-12-11T09:14:07;94566.41;;;-1.08;100.00
23589;BME280;11972;48.078;11.876;2022-12-11T09:18:09;94574.88;;;-1.06;100.00
23589;BME280;11972;48.078;11.876;2022-12-11T09:22:09;94564.25;;;-1.03;100.00
23589;BME280;11972;48.078;11.876;2022-12-11T09:26:13;94562.59;;;-1.04;100.00
23589;BME280;11972;48.078;11.876;2022-12-11T09:30:13;94568.88;;;-0.96;100.00
23589;BME280;11972;48.078;11.876;2022-12-11T09:34:14;94561.50;;;-0.91;100.00
23589;BME280;11972;48.078;11.876;2022-12-11T09:38:15;94564.53;;;-0.86;100.00
23589;BME280;11972;48.078;11.876;2022-12-11T09:46:19;94561.25;;;-0.88;100.00
23589;BME280;11972;48.078;11.876;2022-12-11T09:50:23;94559.88;;;-0.92;100.00
23589;BME280;11972;48.078;11.876;2022-12-11T09:54:24;94560.69;;;-0.92;100.00
23589;BME280;11972;48.078;11.876;2022-12-11T10:07:35;94534.75;;;-0.53;100.00
23589;BME280;11972;48.078;11.876;2022-12-11T10:16:43;94529.63;;;-0.26;100.00
23589;BME280;11972;48.078;11.876;2022-12-11T10:20:42;94521.25;;;-0.10;100.00
23589;BME280;11972;48.078;11.876;2022-12-11T10:24:53;94519.91;;;-0.14;100.00
23589;BME280;11972;48.078;11.876;2022-12-11T10:28:59;94514.75;;;-0.23;100.00
23589;BME280;11972;48.078;11.876;2022-12-11T10:33:21;94519.13;;;-0.34;100.00
23589;BME280;11972;48.078;11.876;2022-12-11T10:37:21;94515.59;;;-0.42;100.00
23589;BME280;11972;48.078;11.876;2022-12-11T10:41:29;94517.25;;;-0.41;100.00
23589;BME280;11972;48.078;11.876;2022-12-11T10:45:32;94507.94;;;-0.34;100.00
23589;BME280;11972;48.078;11.876;2022-12-11T10:49:35;94504.69;;;-0.36;100.00
23589;BME280;11972;48.078;11.876;2022-12-11T10:53:36;94499.50;;;-0.46;100.00
23589;BME280;11972;48.078;11.876;2022-12-11T10:57:37;94485.88;;;-0.58;100.00
23589;BME280;11972;48.078;11.876;2022-12-11T11:01:38;94495.47;;;-0.78;100.00
23589;BME280;11972;48.078;11.876;2022-12-11T11:05:39;94484.84;;;-0.84;100.00
23589;BME280;11972;48.078;11.876;2022-12-11T11:09:42;94486.63;;;-0.85;100.00
23589;BME280;11972;48.078;11.876;2022-12-11T11:13:42;94481.56;;;-0.86;100.00
23589;BME280;11972;48.078;11.876;2022-12-11T11:17:54;94479.09;;;-0.88;100.00
23589;BME280;11972;48.078;11.876;2022-12-11T11:22:01;94471.47;;;-0.89;100.00
23589;BME280;11972;48.078;11.876;2022-12-11T11:26:06;94457.00;;;-0.82;100.00
23589;BME280;11972;48.078;11.876;2022-12-11T11:30:27;94455.78;;;-0.78;100.00
23589;BME280;11972;48.078;11.876;2022-12-11T11:34:29;94458.88;;;-0.65;100.00
23589;BME280;11972;48.078;11.876;2022-12-11T11:38:37;94454.34;;;-0.63;100.00
23589;BME280;11972;48.078;11.876;2022-12-11T11:42:46;94450.16;;;-0.73;100.00
23589;BME280;11972;48.078;11.876;2022-12-11T11:47:09;94441.44;;;-0.82;100.00
23589;BME280;11972;48.078;11.876;2022-12-11T11:51:36;94440.91;;;-0.86;100.00
23589;BME280;11972;48.078;11.876;2022-12-11T11:56:04;94440.25;;;-0.97;100.00
23589;BME280;11972;48.078;11.876;2022-12-11T12:00:16;94437.38;;;-1.14;100.00
23589;BME280;11972;48.078;11.876;2022-12-11T12:04:17;94438.22;;;-1.23;100.00
23589;BME280;11972;48.078;11.876;2022-12-11T12:13:00;94430.03;;;-1.18;100.00
23589;BME280;11972;48.078;11.876;2022-12-11T12:17:18;94439.16;;;-1.24;100.00
23589;BME280;11972;48.078;11.876;2022-12-11T12:21:36;94438.34;;;-1.34;100.00
23589;BME280;11972;48.078;11.876;2022-12-11T12:25:55;94430.84;;;-1.37;100.00
23589;BME280;11972;48.078;11.876;2022-12-11T12:30:18;94435.22;;;-1.47;100.00
23589;BME280;11972;48.078;11.876;2022-12-11T12:38:51;94438.19;;;-1.62;100.00
23589;BME280;11972;48.078;11.876;2022-12-11T12:46:59;94438.75;;;-1.48;100.00
23589;BME280;11972;48.078;11.876;2022-12-11T12:51:05;94434.94;;;-1.35;100.00
23589;BME280;11972;48.078;11.876;2022-12-11T12:59:22;94425.41;;;-1.15;100.00
23589;BME280;11972;48.078;11.876;2022-12-11T13:03:29;94429.75;;;-1.25;100.00
23589;BME280;11972;48.078;11.876;2022-12-11T13:07:31;94430.84;;;-1.37;100.00
23589;BME280;11972;48.078;11.876;2022-12-11T13:11:33;94426.50;;;-1.46;100.00
23589;BME280;11972;48.078;11.876;2022-12-11T13:15:38;94425.94;;;-1.40;100.00
23589;BME280;11972;48.078;11.876;2022-12-11T13:19:46;94423.47;;;-1.32;100.00
23589;BME280;11972;48.078;11.876;2022-12-11T13:23:47;94422.94;;;-1.26;100.00
23589;BME280;11972;48.078;11.876;2022-12-11T13:27:48;94430.31;;;-1.21;100.00
23589;BME280;11972;48.078;11.876;2022-12-11T13:31:57;94431.81;;;-1.19;100.00
23589;BME280;11972;48.078;11.876;2022-12-11T13:36:22;94428.38;;;-1.10;100.00
23589;BME280;11972;48.078;11.876;2022-12-11T13:40:26;94423.19;;;-1.10;100.00
23589;BME280;11972;48.078;11.876;2022-12-11T13:44:29;94428.66;;;-1.13;100.00
23589;BME280;11972;48.078;11.876;2022-12-11T13:48:49;94425.53;;;-1.07;100.00
23589;BME280;11972;48.078;11.876;2022-12-11T13:52:56;94430.56;;;-1.05;100.00
23589;BME280;11972;48.078;11.876;2022-12-11T14:01:13;94425.25;;;-1.13;100.00
23589;BME280;11972;48.078;11.876;2022-12-11T14:05:15;94431.81;;;-1.19;100.00
23589;BME280;11972;48.078;11.876;2022-12-11T14:09:21;94427.56;;;-1.30;100.00
23589;BME280;11972;48.078;11.876;2022-12-11T14:13:32;94435.63;;;-1.42;100.00
23589;BME280;11972;48.078;11.876;2022-12-11T14:17:34;94442.28;;;-1.50;100.00
23589;BME280;11972;48.078;11.876;2022-12-11T14:21:35;94434.63;;;-1.61;100.00
23589;BME280;11972;48.078;11.876;2022-12-11T14:25:36;94439.53;;;-1.77;100.00
23589;BME280;11972;48.078;11.876;2022-12-11T14:29:36;94446.97;;;-1.93;100.00
23589;BME280;11972;48.078;11.876;2022-12-11T14:33:39;94442.44;;;-2.11;100.00
23589;BME280;11972;48.078;11.876;2022-12-11T14:37:43;94440.06;;;-2.33;100.00
23589;BME280;11972;48.078;11.876;2022-12-11T14:46:28;94448.47;;;-2.71;100.00
23589;BME280;11972;48.078;11.876;2022-12-11T14:50:43;94445.53;;;-2.88;100.00
23589;BME280;11972;48.078;11.876;2022-12-11T14:54:50;94443.81;;;-2.98;100.00
23589;BME280;11972;48.078;11.876;2022-12-11T14:59:05;94440.91;;;-3.05;100.00
23589;BME280;11972;48.078;11.876;2022-12-11T15:07:19;94438.66;;;-3.19;100.00
23589;BME280;11972;48.078;11.876;2022-12-11T15:11:22;94446.06;;;-3.26;100.00
23589;BME280;11972;48.078;11.876;2022-12-11T15:15:23;94448.91;;;-3.29;100.00
23589;BME280;11972;48.078;11.876;2022-12-11T15:19:30;94444.56;;;-3.29;100.00
23589;BME280;11972;48.078;11.876;2022-12-11T15:23:52;94450.28;;;-3.25;100.00
23589;BME280;11972;48.078;11.876;2022-12-11T15:27:58;94446.41;;;-3.19;100.00
23589;BME280;11972;48.078;11.876;2022-12-11T15:36:23;94448.16;;;-3.20;100.00
23589;BME280;11972;48.078;11.876;2022-12-11T15:40:24;94453.81;;;-3.26;100.00
23589;BME280;11972;48.078;11.876;2022-12-11T15:44:25;94455.97;;;-3.31;100.00
23589;BME280;11972;48.078;11.876;2022-12-11T15:48:26;94455.06;;;-3.41;100.00
23589;BME280;11972;48.078;11.876;2022-12-11T15:52:26;94455.56;;;-3.47;100.00
23589;BME280;11972;48.078;11.876;2022-12-11T15:56:27;94456.75;;;-3.52;100.00
23589;BME280;11972;48.078;11.876;2022-12-11T16:00:28;94468.03;;;-3.53;100.00
23589;BME280;11972;48.078;11.876;2022-12-11T16:04:28;94456.75;;;-3.52;100.00
23589;BME280;11972;48.078;11.876;2022-12-11T16:08:29;94468.47;;;-3.47;100.00
23589;BME280;11972;48.078;11.876;2022-12-11T16:12:29;94467.50;;;-3.46;100.00
23589;BME280;11972;48.078;11.876;2022-12-11T16:16:30;94467.28;;;-3.43;100.00
23589;BME280;11972;48.078;11.876;2022-12-11T16:20:31;94467.03;;;-3.40;100.00
23589;BME280;11972;48.078;11.876;2022-12-11T16:24:31;94474.66;;;-3.39;100.00
23589;BME280;11972;48.078;11.876;2022-12-11T16:28:32;94477.13;;;-3.37;100.00
23589;BME280;11972;48.078;11.876;2022-12-11T16:32:33;94479.00;;;-3.39;100.00
23589;BME280;11972;48.078;11.876;2022-12-11T16:36:33;94481.72;;;-3.41;100.00
23589;BME280;11972;48.078;11.876;2022-12-11T16:40:33;94480.31;;;-3.45;100.00
23589;BME280;11972;48.078;11.876;2022-12-11T16:44:34;94489.81;;;-3.45;100.00
23589;BME280;11972;48.078;11.876;2022-12-11T16:48:34;94493.31;;;-3.46;100.00
23589;BME280;11972;48.078;11.876;2022-12-11T16:52:34;94493.59;;;-3.50;100.00
23589;BME280;11972;48.078;11.876;2022-12-11T16:56:35;94490.53;;;-3.55;100.00
23589;BME280;11972;48.078;11.876;2022-12-11T17:00:37;94492.66;;;-3.60;100.00
23589;BME280;11972;48.078;11.876;2022-12-11T17:04:37;94491.28;;;-3.64;100.00
23589;BME280;11972;48.078;11.876;2022-12-11T17:08:38;94500.19;;;-3.68;100.00
23589;BME280;11972;48.078;11.876;2022-12-11T17:12:38;94496.94;;;-3.70;100.00
23589;BME280;11972;48.078;11.876;2022-12-11T17:16:39;94493.41;;;-3.69;100.00
23589;BME280;11972;48.078;11.876;2022-12-11T17:20:43;94490.59;;;-3.66;100.00
23589;BME280;11972;48.078;11.876;2022-12-11T17:24:44;94504.03;;;-3.62;100.00
23589;BME280;11972;48.078;11.876;2022-12-11T17:28:44;94495.25;;;-3.60;100.00
23589;BME280;11972;48.078;11.876;2022-12-11T17:32:47;94492.44;;;-3.57;100.00
23589;BME280;11972;48.078;11.876;2022-12-11T17:36:48;94494.41;;;-3.49;100.00
23589;BME280;11972;48.078;11.876;2022-12-11T17:40:48;94496.50;;;-3.43;100.00
23589;BME280;11972;48.078;11.876;2022-12-11T17:44:48;94497.50;;;-3.34;100.00
23589;BME280;11972;48.078;11.876;2022-12-11T17:48:49;94494.56;;;-3.30;100.00
23589;BME280;11972;48.078;11.876;2022-12-11T17:52:49;94498.66;;;-3.27;100.00
23589;BME280;11972;48.078;11.876;2022-12-11T17:56:50;94492.69;;;-3.28;100.00
23589;BME280;11972;48.078;11.876;2022-12-11T18:00:53;94486.72;;;-3.28;100.00
23589;BME280;11972;48.078;11.876;2022-12-11T18:04:54;94497.59;;;-3.25;100.00
23589;BME280;11972;48.078;11.876;2022-12-11T18:08:55;94490.53;;;-3.22;100.00
23589;BME280;11972;48.078;11.876;2022-12-11T18:12:55;94498.16;;;-3.21;100.00
23589;BME280;11972;48.078;11.876;2022-12-11T18:16:56;94497.34;;;-3.21;100.00
23589;BME280;11972;48.078;11.876;2022-12-11T18:20:56;94493.13;;;-3.22;100.00
23589;BME280;11972;48.078;11.876;2022-12-11T18:24:57;94501.69;;;-3.22;100.00
23589;BME280;11972;48.078;11.876;2022-12-11T18:28:58;94500.06;;;-3.23;100.00
23589;BME280;11972;48.078;11.876;2022-12-11T18:32:58;94499.34;;;-3.25;100.00
23589;BME280;11972;48.078;11.876;2022-12-11T18:36:58;94495.13;;;-3.26;100.00
23589;BME280;11972;48.078;11.876;2022-12-11T18:41:06;94505.59;;;-3.28;100.00
23589;BME280;11972;48.078;11.876;2022-12-11T18:45:07;94513.47;;;-3.29;100.00
23589;BME280;11972;48.078;11.876;2022-12-11T18:49:08;94505.97;;;-3.32;100.00
23589;BME280;11972;48.078;11.876;2022-12-11T18:53:08;94500.81;;;-3.32;100.00
23589;BME280;11972;48.078;11.876;2022-12-11T18:57:09;94512.75;;;-3.31;100.00
23589;BME280;11972;48.078;11.876;2022-12-11T19:01:25;94513.00;;;-3.34;100.00
23589;BME280;11972;48.078;11.876;2022-12-11T19:05:27;94509.50;;;-3.33;100.00
23589;BME280;11972;48.078;11.876;2022-12-11T19:09:28;94510.31;;;-3.33;100.00
23589;BME280;11972;48.078;11.876;2022-12-11T19:13:28;94518.75;;;-3.31;100.00
23589;BME280;11972;48.078;11.876;2022-12-11T19:17:28;94523.69;;;-3.28;100.00
23589;BME280;11972;48.078;11.876;2022-12-11T19:21:29;94520.97;;;-3.26;100.00
23589;BME280;11972;48.078;11.876;2022-12-11T19:25:30;94520.47;;;-3.20;100.00
23589;BME280;11972;48.078;11.876;2022-12-11T19:29:31;94527.84;;;-3.15;100.00
23589;BME280;11972;48.078;11.876;2022-12-11T19:33:31;94526.78;;;-3.13;100.00
23589;BME280;11972;48.078;11.876;2022-12-11T19:37:32;94524.66;;;-3.08;100.00
23589;BME280;11972;48.078;11.876;2022-12-11T19:41:32;94530.94;;;-3.01;100.00
23589;BME280;11972;48.078;11.876;2022-12-11T19:45:32;94533.50;;;-2.89;100.00
23589;BME280;11972;48.078;11.876;2022-12-11T19:49:33;94531.09;;;-2.81;100.00
23589;BME280;11972;48.078;11.876;2022-12-11T19:53:34;94524.06;;;-2.79;100.00
23589;BME280;11972;48.078;11.876;2022-12-11T19:57:34;94528.94;;;-2.76;100.00
23589;BME280;11972;48.078;11.876;2022-12-11T20:01:36;94528.03;;;-2.75;100.00
23589;BME280;11972;48.078;11.876;2022-12-11T20:05:37;94527.75;;;-2.72;100.00
23589;BME280;11972;48.078;11.876;2022-12-11T20:09:37;94532.69;;;-2.69;100.00
23589;BME280;11972;48.078;11.876;2022-12-11T20:13:38;94536.91;;;-2.68;100.00
23589;BME280;11972;48.078;11.876;2022-12-11T20:17:40;94537.16;;;-2.71;100.00
23589;BME280;11972;48.078;11.876;2022-12-11T20:21:43;94537.41;;;-2.74;100.00
23589;BME280;11972;48.078;11.876;2022-12-11T20:25:44;94538.38;;;-2.75;100.00
23589;BME280;11972;48.078;11.876;2022-12-11T20:29:44;94527.91;;;-2.73;100.00
23589;BME280;11972;48.078;11.876;2022-12-11T20:33:45;94525.56;;;-2.77;100.00
23589;BME280;11972;48.078;11.876;2022-12-11T20:37:45;94532.50;;;-2.77;100.00
23589;BME280;11972;48.078;11.876;2022-12-11T20:41:45;94529.22;;;-2.79;100.00
23589;BME280;11972;48.078;11.876;2022-12-11T20:45:49;94522.66;;;-2.83;100.00
23589;BME280;11972;48.078;11.876;2022-12-11T20:49:50;94522.78;;;-2.85;100.00
23589;BME280;11972;48.078;11.876;2022-12-11T20:53:51;94523.03;;;-2.88;100.00
23589;BME280;11972;48.078;11.876;2022-12-11T20:57:57;94520.63;;;-3.01;100.00
23589;BME280;11972;48.078;11.876;2022-12-11T21:01:57;94526.78;;;-3.13;100.00
23589;BME280;11972;48.078;11.876;2022-12-11T21:05:58;94512.34;;;-3.15;100.00
23589;BME280;11972;48.078;11.876;2022-12-11T21:09:58;94526.31;;;-3.18;100.00
23589;BME280;11972;48.078;11.876;2022-12-11T21:13:58;94525.66;;;-3.20;100.00
23589;BME280;11972;48.078;11.876;2022-12-11T21:17:59;94524.25;;;-3.24;100.00
23589;BME280;11972;48.078;11.876;2022-12-11T21:21:59;94520.13;;;-3.27;100.00
23589;BME280;11972;48.078;11.876;2022-12-11T21:25:59;94513.59;;;-3.31;100.00
23589;BME280;11972;48.078;11.876;2022-12-11T21:30:00;94518.16;;;-3.34;100.00
23589;BME280;11972;48.078;11.876;2022-12-11T21:34:00;94514.66;;;-3.33;100.00
23589;BME280;11972;48.078;11.876;2022-12-11T21:38:01;94520.75;;;-3.34;100.00
23589;BME280;11972;48.078;11.876;2022-12-11T21:42:01;94517.50;;;-3.36;100.00
23589;BME280;11972;48.078;11.876;2022-12-11T21:46:02;94510.22;;;-3.42;100.00
23589;BME280;11972;48.078;11.876;2022-12-11T21:50:02;94515.53;;;-3.55;100.00
23589;BME280;11972;48.078;11.876;2022-12-11T21:54:04;94514.06;;;-3.69;100.00
23589;BME280;11972;48.078;11.876;2022-12-11T21:58:05;94518.28;;;-3.79;100.00
23589;BME280;11972;48.078;11.876;2022-12-11T22:02:06;94516.66;;;-3.80;100.00